Bookmark and Share
Track history (hours):
 

Callsign AMOUK35 (name unknown)

Last reported at 2014-Apr-18 01:00 UTC. Time now 2014-Apr-18 03:11 UTC.
Position N 57°00' W 006°42'.

Barometer 1022.6 mb
Air temperature 6.9 ° C
Dewpoint 0.2 ° C

NotesDate/timePositionNaut miles runAvg speedWind from/ knotsBaromVisibWave heightAir tempDewpointWater temp
2014-Apr-18 01:00N 57°00' W 006°42'7 6.8 1022.6 6.9 0.2
2014-Apr-18 00:00N 56°54' W 006°36'9 8.9 1022.4 6.9 1.0
2014-Apr-17 23:00N 56°48' W 006°24'7 6.8 1022.3 7.3 0.9
2014-Apr-17 22:00N 56°42' W 006°18'3 3.3 1021.9 7.3 2.0
2014-Apr-17 21:00N 56°42' W 006°12'9 8.9 1021.3 7.3 0.9
2014-Apr-17 20:00N 56°36' W 006°00'9 8.9 1020.3 7.2 0.8
2014-Apr-17 19:00N 56°30' W 005°48'9 8.9 1019.4 7.8 0.7
2014-Apr-17 18:00N 56°24' W 005°36'3 3.3 1018.1 8.7 2.6
2014-Apr-17 17:00N 56°24' W 005°30'0 0.0 1017.9 9.2 1.1
2014-Apr-17 14:00N 56°24' W 005°30'0 0.0 1016.6 9.0 2.6
2014-Apr-17 13:00N 56°24' W 005°30'0 0.0 1015.4 8.9 2.5
2014-Apr-17 12:00N 56°24' W 005°30'0 0.0 1015.1 8.6 2.6
2014-Apr-17 11:00N 56°24' W 005°30'0 0.0 1014.8 8.7 3.2
2014-Apr-17 10:00N 56°24' W 005°30'0 0.0 1013.6 8.6 2.8
2014-Apr-17 09:00N 56°24' W 005°30'0 0.0 1012.9 9.3 4.0
2014-Apr-17 08:00N 56°24' W 005°30'0 0.0 1012.6 8.4 6.1
2014-Apr-17 07:00N 56°24' W 005°30'0 0.0 1013.0 8.7 5.4
2014-Apr-17 06:00N 56°24' W 005°30'0 0.0 1013.4 8.1 5.5
2014-Apr-17 01:00N 56°24' W 005°30'0 0.0 1014.3 8.8 7.3
2014-Apr-17 00:00N 56°24' W 005°30'0 0.0 1014.6 9.3 7.8
2014-Apr-16 23:00N 56°24' W 005°30'0 0.0 1015.2 9.3 7.7
2014-Apr-16 18:00N 56°24' W 005°30'0 0.0 1017.5 9.8 6.9
2014-Apr-16 17:00N 56°24' W 005°30'0 0.0 1017.9 10.7 6.1
2014-Apr-16 16:00N 56°24' W 005°30'0 0.0 1018.8 11.7 5.5
2014-Apr-16 13:00N 56°24' W 005°30'0 0.0 1021.2 11.4 4.4
2014-Apr-16 12:00N 56°24' W 005°30'0 0.0 1021.2 12.8 4.3
2014-Apr-16 11:00N 56°24' W 005°30'0 0.0 1021.4 12.3 4.2
2014-Apr-16 10:00N 56°24' W 005°30'0 0.0 1021.2 12.8 3.2
2014-Apr-16 09:00N 56°24' W 005°30'0 0.0 1021.4 12.3 3.6
2014-Apr-16 08:00N 56°24' W 005°30'0 0.0 1022.0 10.5 3.5
2014-Apr-16 07:00N 56°24' W 005°30'0 0.0 1022.1 10.2 3.0
2014-Apr-16 06:00N 56°24' W 005°30'0 0.0 1022.4 9.0 2.8
2014-Apr-16 05:00N 56°24' W 005°30'0 0.0 1022.5 9.3 3.0
2014-Apr-16 04:00N 56°24' W 005°30'0 0.0 1022.9 9.5 4.0
2014-Apr-16 03:00N 56°24' W 005°30'0 0.0 1023.4 9.2 4.0
2014-Apr-16 02:00N 56°24' W 005°30'0 0.0 1023.7 10.2 4.4
2014-Apr-16 01:00N 56°24' W 005°30'0 0.0 1023.8 10.5 4.8
2014-Apr-16 00:00N 56°24' W 005°30'0 0.0 1023.9 11.3 5.4
2014-Apr-15 23:00N 56°24' W 005°30'0 0.0 1024.4 10.0 5.1
2014-Apr-15 22:00N 56°24' W 005°30'0 0.0 1024.3 10.6 4.3
2014-Apr-15 21:00N 56°24' W 005°30'0 0.0 1024.3 10.3 4.0
2014-Apr-15 20:00N 56°24' W 005°30'0 0.0 1024.3 10.8 3.8
2014-Apr-15 19:00N 56°24' W 005°30'0 0.0 1024.4 12.1 3.5
2014-Apr-15 18:00N 56°24' W 005°30'0 0.0 1024.4 12.6 4.6
2014-Apr-15 17:00N 56°24' W 005°30'0 0.0 1024.6 14.4 4.9
2014-Apr-15 16:00N 56°24' W 005°30'0 0.0 1025.0 13.1 4.2
2014-Apr-15 15:00N 56°24' W 005°30'0 0.0 1025.9 14.0 4.6
2014-Apr-15 14:00N 56°24' W 005°30'0 0.0 1026.8 12.2 4.4
2014-Apr-15 13:00N 56°24' W 005°30'0 0.0 1027.5 11.5 4.6
2014-Apr-15 12:00N 56°24' W 005°30'0 0.0 1028.2 10.5 4.4
2014-Apr-15 09:00N 56°24' W 005°30'6 6.0 1028.8 8.1 4.3
2014-Apr-15 08:00N 56°30' W 005°30'0 0.0 1028.9 8.7 3.9
2014-Apr-15 07:00N 56°30' W 005°30'0 0.0 1028.8 6.5 4.1
2014-Apr-15 06:00N 56°30' W 005°30'0 0.0 1028.6 5.7 2.5
2014-Apr-15 05:00N 56°30' W 005°30'0 0.0 1028.6 5.3 2.3
2014-Apr-15 04:00N 56°30' W 005°30'0 0.0 1028.2 5.7 3.7
2014-Apr-15 03:00N 56°30' W 005°30'0 0.0 1028.2 5.5 2.6
2014-Apr-15 02:00N 56°30' W 005°30'0 0.0 1028.6 5.7 3.6
2014-Apr-15 01:00N 56°30' W 005°30'0 0.0 1028.9 5.5 3.2
2014-Apr-15 00:00N 56°30' W 005°30'0 0.0 1029.2 5.9 3.7
2014-Apr-14 23:00N 56°30' W 005°30'0 0.0 1028.9 6.7 4.3
2014-Apr-14 22:00N 56°30' W 005°30'0 0.0 1028.8 7.8 4.2
2014-Apr-14 21:00N 56°30' W 005°30'0 0.0 1028.2 8.3 3.8
2014-Apr-14 20:00N 56°30' W 005°30'0 0.0 1028.3 8.9 4.3
2014-Apr-14 19:00N 56°30' W 005°30'0 0.0 1028.0 9.4 3.8
2014-Apr-14 18:00N 56°30' W 005°30'0 0.0 1027.8 10.8 3.5
2014-Apr-14 17:00N 56°30' W 005°30'0 0.0 1027.4 11.5 3.2
2014-Apr-14 16:00N 56°30' W 005°30'0 0.0 1027.1 11.5 3.4
2014-Apr-14 15:00N 56°30' W 005°30'0 0.0 1027.1 10.9 2.7
2014-Apr-14 14:00N 56°30' W 005°30'0 0.0 1027.0 11.7 2.3
2014-Apr-14 13:00N 56°30' W 005°30'6 6.0 1026.7 10.5 0.9
2014-Apr-14 12:00N 56°24' W 005°30'0 0.0 1026.4 9.5 3.4
2014-Apr-14 11:00N 56°24' W 005°30'0 0.0 1025.8 9.1 3.2
2014-Apr-14 10:00N 56°24' W 005°30'0 0.0 1025.4 8.9 2.6
2014-Apr-14 09:00N 56°24' W 005°30'0 0.0 1024.5 8.2 4.6
2014-Apr-14 08:00N 56°24' W 005°30'0 0.0 1023.8 7.9 4.5
2014-Apr-14 02:00N 56°24' W 005°30'0 0.0 1020.2 7.8 4.7
2014-Apr-13 21:00N 56°24' W 005°30'0 0.0 1016.4 8.5 4.4
2014-Apr-13 20:00N 56°24' W 005°30'0 0.0 1016.1 8.3 4.6
2014-Apr-13 19:00N 56°24' W 005°30'0 0.0 1015.3 8.4 4.3
2014-Apr-13 18:00N 56°24' W 005°30'0 0.0 1014.3 8.4 4.2
2014-Apr-13 15:00N 56°24' W 005°30'0 0.0 1012.9 9.3 4.9
2014-Apr-13 13:00N 56°24' W 005°30'0 0.0 1014.3 8.4 6.4
2014-Apr-13 12:00N 56°24' W 005°30'0 0.0 1015.2 8.4 5.7
2014-Apr-13 11:00N 56°24' W 005°30'0 0.0 1016.0 8.8 4.7
2014-Apr-13 10:00N 56°24' W 005°30'0 0.0 1016.4 8.1 5.4
2014-Apr-13 09:00N 56°24' W 005°30'0 0.0 1016.4 8.3 5.7
2014-Apr-12 19:00N 56°24' W 005°30'0 0.0 1013.0 8.8 4.7
2014-Apr-12 18:00N 56°24' W 005°30'0 0.0 1012.2 9.4 3.8
2014-Apr-12 17:00N 56°24' W 005°30'0 0.0 1011.2 9.2 4.1
2014-Apr-12 16:00N 56°24' W 005°30'0 0.0 1010.7 9.3 3.3
2014-Apr-12 15:00N 56°24' W 005°30'0 0.0 1010.4 9.6 3.4
2014-Apr-12 14:00N 56°24' W 005°30'0 0.0 1010.2 9.9 3.4
2014-Apr-12 13:00N 56°24' W 005°30'0 0.0 1010.0 9.7 2.8
2014-Apr-12 12:00N 56°24' W 005°30'0 0.0 1009.4 9.9 3.9
2014-Apr-12 11:00N 56°24' W 005°30'0 0.0 1009.0 10.6 2.3
2014-Apr-12 10:00N 56°24' W 005°30'0 0.0 1008.7 10.3 4.2
2014-Apr-12 09:00N 56°24' W 005°30'0 0.0 1008.5 9.4 5.8
2014-Apr-12 08:00N 56°24' W 005°30'0 0.0 1007.9 8.5 6.5
2014-Apr-12 06:00N 56°24' W 005°30'0 0.0 1007.2 8.8 6.8
2014-Apr-12 05:00N 56°24' W 005°30'0 0.0 1008.1 8.0 6.2
2014-Apr-12 04:00N 56°24' W 005°30'0 0.0 1009.3 7.7 5.8
2014-Apr-12 03:00N 56°24' W 005°30'0 0.0 1010.2 8.6 5.4
2014-Apr-12 02:00N 56°24' W 005°30'0 0.0 1010.8 8.6 4.8
2014-Apr-12 01:00N 56°24' W 005°30'0 0.0 1012.4 9.0 4.5
2014-Apr-12 00:00N 56°24' W 005°30'0 0.0 1013.3 8.7 5.0
2014-Apr-11 23:00N 56°24' W 005°30'0 0.0 1014.7 8.7 5.0
2014-Apr-11 20:00N 56°24' W 005°30'0 0.0 1017.0 8.3 5.8
2014-Apr-11 19:00N 56°24' W 005°30'0 0.0 1017.4 8.3 5.9
2014-Apr-11 18:00N 56°24' W 005°30'0 0.0 1017.6 8.6 5.8
2014-Apr-11 17:00N 56°24' W 005°30'0 0.0 1018.1 8.6 6.1
2014-Apr-11 13:00N 56°24' W 005°30'0 0.0 1020.4 9.9 5.4
2014-Apr-11 12:00N 56°24' W 005°30'0 0.0 1020.3 10.4 5.2
2014-Apr-11 11:00N 56°24' W 005°30'0 0.0 1020.6 10.2 4.9
2014-Apr-11 10:00N 56°24' W 005°30'0 0.0 1020.9 9.5 5.5
2014-Apr-11 09:00N 56°24' W 005°30'0 0.0 1020.8 8.7 5.4
2014-Apr-11 08:00N 56°24' W 005°30'0 0.0 1020.8 8.5 5.7
2014-Apr-11 07:00N 56°24' W 005°30'0 0.0 1020.9 7.2 4.8
2014-Apr-11 06:00N 56°24' W 005°30'0 0.0 1020.5 6.6 4.2
2014-Apr-11 05:00N 56°24' W 005°30'0 0.0 1020.8 6.6 4.1
2014-Apr-11 04:00N 56°24' W 005°30'0 0.0 1020.4 7.0 4.5
2014-Apr-11 03:00N 56°24' W 005°30'0 0.0 1020.2 7.1 4.7
2014-Apr-11 02:00N 56°24' W 005°30'0 0.0 1020.5 7.1 4.1
2014-Apr-11 01:00N 56°24' W 005°30'0 0.0 1020.3 7.3 4.0
2014-Apr-11 00:00N 56°24' W 005°30'0 0.0 1020.9 7.9 4.4
2014-Apr-10 23:00N 56°24' W 005°30'0 0.0 1020.6 7.6 4.0
2014-Apr-10 22:00N 56°24' W 005°30'0 0.0 1020.5 8.3 3.8
2014-Apr-10 21:00N 56°24' W 005°30'0 0.0 1020.6 8.4 4.2
2014-Apr-10 20:00N 56°24' W 005°30'0 0.0 1020.1 8.8 4.0
2014-Apr-10 19:00N 56°24' W 005°30'0 0.0 1019.4 9.2 3.8
2014-Apr-10 18:00N 56°24' W 005°30'0 0.0 1019.2 7.8 2.7
2014-Apr-10 17:00N 56°24' W 005°30'0 0.0 1019.2 8.3 3.8
2014-Apr-10 16:00N 56°24' W 005°30'0 0.0 1019.0 10.7 3.8
2014-Apr-10 13:00N 56°24' W 005°30'0 0.0 1019.1 10.9 5.4
2014-Apr-10 12:00N 56°24' W 005°30'0 0.0 1019.1 11.5 5.0
2014-Apr-10 11:00N 56°24' W 005°30'0 0.0 1019.0 10.5 5.9
2014-Apr-10 10:00N 56°24' W 005°30'0 0.0 1018.5 11.5 5.4
2014-Apr-10 09:00N 56°24' W 005°30'0 0.0 1018.3 9.9 5.4
2014-Apr-10 08:00N 56°24' W 005°30'0 0.0 1018.1 8.8 5.1
2014-Apr-10 07:00N 56°24' W 005°30'0 0.0 1018.0 8.4 6.2
2014-Apr-10 04:00N 56°24' W 005°30'0 0.0 1016.7 8.4 7.0
2014-Apr-09 22:00N 56°24' W 005°30'0 0.0 1018.3 9.9 5.6
2014-Apr-09 13:00N 56°24' W 005°30'0 0.0 1019.1 9.4 7.8
2014-Apr-09 12:00N 56°24' W 005°30'0 0.0 1019.0 9.4 7.9
2014-Apr-09 11:00N 56°24' W 005°30'0 0.0 1018.7 9.5 7.9
2014-Apr-09 10:00N 56°24' W 005°30'0 0.0 1018.7 9.5 7.8
2014-Apr-09 09:00N 56°24' W 005°30'0 0.0 1018.7 9.6 8.0
2014-Apr-09 08:00N 56°24' W 005°30'0 0.0 1018.5 9.3 7.7
2014-Apr-09 07:00N 56°24' W 005°30'0 0.0 1018.2 9.5 8.0
2014-Apr-09 06:00N 56°24' W 005°30'0 0.0 1017.3 9.4 8.0
2014-Apr-09 05:00N 56°24' W 005°30'0 0.0 1016.8 9.3 7.9
2014-Apr-09 04:00N 56°24' W 005°30'0 0.0 1016.6 9.4 8.0
2014-Apr-09 03:00N 56°24' W 005°30'0 0.0 1016.4 9.3 7.9
2014-Apr-09 02:00N 56°24' W 005°30'0 0.0 1016.5 9.2 7.8
2014-Apr-09 01:00N 56°24' W 005°30'0 0.0 1016.8 9.0 7.6
2014-Apr-09 00:00N 56°24' W 005°30'0 0.0 1016.6 8.9 7.5
2014-Apr-08 23:00N 56°24' W 005°30'0 0.0 1016.7 8.8 7.4
2014-Apr-08 22:00N 56°24' W 005°30'0 0.0 1016.8 8.7 7.2
2014-Apr-08 21:00N 56°24' W 005°30'0 0.0 1017.0 8.6 6.9
2014-Apr-08 20:00N 56°24' W 005°30'0 0.0 1017.1 8.4 6.5
2014-Apr-08 19:00N 56°24' W 005°30'9 9.0 1017.0 8.7 6.4
2014-Apr-08 18:00N 56°18' W 005°42'18 9.2 1016.9 9.1 5.7
2014-Apr-08 16:00N 56°00' W 005°48'6 3.0 1016.8 9.8 5.3
2014-Apr-08 14:00N 55°54' W 005°48'1212.5 1015.0 9.4 3.5
2014-Apr-08 13:00N 56°06' W 005°42'7 6.9 1013.6 9.2 4.6
2014-Apr-08 12:00N 56°12' W 005°48'1010.0 1013.6 8.7 4.9
2014-Apr-08 11:00N 56°12' W 006°06'1211.7 1012.6 8.7 4.7
2014-Apr-08 10:00N 56°18' W 006°24'6 6.0 1011.6 8.8 4.7
2014-Apr-08 09:00N 56°24' W 006°24'7 6.9 1009.4 8.0 4.3
2014-Apr-08 08:00N 56°18' W 006°18'0 0.0 1009.2 7.9 3.5
2014-Apr-08 07:00N 56°18' W 006°18'0 0.0 1008.1 7.2 3.0
2014-Apr-08 06:00N 56°18' W 006°18'0 0.0 1007.1 5.4 2.1
2014-Apr-08 05:00N 56°18' W 006°18'0 0.0 1005.9 6.2 2.8
2014-Apr-08 04:00N 56°18' W 006°18'0 0.0 1005.1 6.1 2.6
2014-Apr-08 03:00N 56°18' W 006°18'0 0.0 1004.4 6.6 2.6
2014-Apr-08 02:00N 56°18' W 006°18'0 0.0 1004.2 6.8 3.2
2014-Apr-08 01:00N 56°18' W 006°18'   1003.5 6.5 2.6

Dump ship's entire track history

sailing weather and tide predictions

Ship Status Report: callsign AMOUK35